Time;durP1;ratioP1;P1;durP2;ratioP2;P2;SDS_P1;SDS_P2;PMS_P1;PMS_P2;Temp;Humidity;BMP_temperature;BMP_pressure;BME280_temperature;BME280_humidity;BME280_pressure;Samples;Min_cycle;Max_cycle;Signal;HPM_P1;HPM_P2
2021/05/30 00:00:27;;;;;;;17.15;9.27;;;11.30;99.90;;;;;;5039585;28;20049;-81
2021/05/30 00:02:54;;;;;;;16.92;9.55;;;11.30;99.90;;;;;;5060052;28;20054;-81
2021/05/30 00:05:21;;;;;;;19.02;9.00;;;11.30;99.90;;;;;;5050135;28;20148;-80
2021/05/30 00:07:48;;;;;;;16.42;8.27;;;11.30;99.90;;;;;;5045519;28;20059;-80
2021/05/30 00:10:16;;;;;;;16.88;9.30;;;11.20;99.90;;;;;;5044012;28;20055;-81
2021/05/30 00:12:46;;;;;;;13.73;9.13;;;11.20;99.90;;;;;;5038982;28;20055;-79
2021/05/30 00:15:13;;;;;;;16.52;9.05;;;11.20;99.90;;;;;;5074425;28;20069;-79
2021/05/30 00:17:40;;;;;;;15.35;8.65;;;11.30;99.90;;;;;;5042257;28;20520;-80
2021/05/30 00:20:09;;;;;;;19.02;8.82;;;11.30;99.90;;;;;;5036458;28;20500;-80
2021/05/30 00:22:36;;;;;;;18.85;9.93;;;11.30;99.90;;;;;;5045145;28;20045;-80
2021/05/30 00:25:04;;;;;;;17.25;8.85;;;11.30;99.90;;;;;;5052764;28;20053;-79
2021/05/30 00:27:32;;;;;;;16.98;8.77;;;11.30;99.90;;;;;;5042045;28;20484;-79
2021/05/30 00:30:00;;;;;;;17.70;9.25;;;11.30;99.90;;;;;;5033291;28;20049;-79
2021/05/30 00:32:27;;;;;;;17.88;9.25;;;11.30;99.90;;;;;;5067226;28;20045;-80
2021/05/30 00:34:54;;;;;;;15.23;9.05;;;11.30;99.90;;;;;;5053969;28;20056;-79
2021/05/30 00:37:21;;;;;;;14.60;8.75;;;11.20;99.90;;;;;;5037424;28;20049;-79
2021/05/30 00:39:48;;;;;;;14.10;9.40;;;11.20;99.90;;;;;;5041083;28;20082;-81
2021/05/30 00:42:15;;;;;;;19.40;10.57;;;11.30;99.90;;;;;;5037421;28;20403;-79
2021/05/30 00:44:42;;;;;;;19.48;9.55;;;11.20;99.90;;;;;;5041662;28;20045;-80
2021/05/30 00:47:09;;;;;;;18.58;9.30;;;11.30;99.90;;;;;;5038254;28;20056;-80
2021/05/30 00:49:36;;;;;;;18.15;9.07;;;11.20;99.90;;;;;;5038944;28;20045;-80
2021/05/30 00:52:05;;;;;;;21.55;9.73;;;11.20;99.90;;;;;;5036531;28;20049;-79
2021/05/30 00:54:35;;;;;;;21.08;8.85;;;11.20;99.90;;;;;;5036510;28;20084;-79
2021/05/30 00:57:03;;;;;;;17.00;9.30;;;11.30;99.90;;;;;;5041481;28;20056;-79
2021/05/30 00:59:30;;;;;;;20.10;9.50;;;11.30;99.90;;;;;;5054525;28;20054;-80
2021/05/30 01:01:57;;;;;;;16.73;8.85;;;11.30;99.90;;;;;;5038875;28;20053;-79
2021/05/30 01:04:24;;;;;;;17.83;8.38;;;11.30;99.90;;;;;;5026221;28;20060;-80
2021/05/30 01:06:55;;;;;;;17.67;8.93;;;11.30;99.90;;;;;;5043770;28;21017;-80
2021/05/30 01:09:26;;;;;;;18.20;10.02;;;11.30;99.90;;;;;;5036057;28;20045;-80
2021/05/30 01:11:55;;;;;;;21.35;9.65;;;11.30;99.90;;;;;;5037207;28;20052;-81
2021/05/30 01:14:22;;;;;;;29.48;11.57;;;11.30;99.90;;;;;;5043090;28;20051;-79
2021/05/30 01:16:49;;;;;;;22.60;9.93;;;11.20;99.90;;;;;;5046779;28;20052;-80
2021/05/30 01:19:16;;;;;;;21.67;9.13;;;11.20;99.90;;;;;;5032568;28;20084;-81
2021/05/30 01:21:45;;;;;;;16.23;9.77;;;11.20;99.90;;;;;;5071582;28;20389;-81
2021/05/30 01:24:14;;;;;;;17.23;10.15;;;11.20;99.90;;;;;;5030805;28;20060;-80
2021/05/30 01:26:41;;;;;;;20.90;10.30;;;11.20;99.90;;;;;;5052608;28;20538;-81
2021/05/30 01:29:08;;;;;;;18.27;9.18;;;11.20;99.90;;;;;;5042916;28;20060;-81
2021/05/30 01:31:35;;;;;;;19.02;9.13;;;11.20;99.90;;;;;;5037402;28;20098;-81
2021/05/30 01:34:03;;;;;;;20.77;9.60;;;11.10;99.90;;;;;;5076444;28;20102;-79
2021/05/30 01:36:31;;;;;;;21.00;10.25;;;11.10;99.90;;;;;;5045066;28;20586;-79
2021/05/30 01:38:58;;;;;;;18.75;9.20;;;11.10;99.90;;;;;;5041831;28;20041;-80
2021/05/30 01:41:25;;;;;;;17.73;10.07;;;11.10;99.90;;;;;;5041463;28;20048;-80
2021/05/30 01:43:52;;;;;;;17.70;9.45;;;11.00;99.90;;;;;;5041476;28;20033;-80
2021/05/30 01:46:19;;;;;;;18.52;9.57;;;11.00;99.90;;;;;;5037928;28;20041;-80
2021/05/30 01:48:46;;;;;;;18.55;10.32;;;11.00;99.90;;;;;;5041543;28;20064;-81
2021/05/30 01:51:13;;;;;;;17.23;9.88;;;11.00;99.90;;;;;;5041908;28;20047;-80
2021/05/30 01:53:55;;;;;;;17.55;10.50;;;11.00;99.90;;;;;;5055251;28;20106;-81
2021/05/30 01:59:10;;;;;;;19.83;10.60;;;10.90;99.90;;;;;;5041283;28;20507;-81
2021/05/30 02:01:37;;;;;;;19.20;10.38;;;10.90;99.90;;;;;;5025251;28;20049;-81
2021/05/30 02:04:05;;;;;;;17.02;10.20;;;10.80;99.90;;;;;;5059365;28;20068;-81
2021/05/30 02:06:33;;;;;;;25.27;11.50;;;10.80;99.90;;;;;;5079479;28;20059;-80
2021/05/30 02:09:02;;;;;;;26.52;11.40;;;10.80;99.90;;;;;;5039223;28;20128;-80
2021/05/30 02:11:29;;;;;;;19.48;10.85;;;10.70;99.90;;;;;;5041139;28;20071;-80
2021/05/30 02:14:00;;;;;;;20.65;10.85;;;10.70;99.90;;;;;;5036219;28;20058;-81
2021/05/30 02:16:29;;;;;;;18.63;10.30;;;10.70;99.90;;;;;;5037924;28;20050;-81
2021/05/30 02:18:56;;;;;;;22.58;10.45;;;10.70;99.90;;;;;;5045454;28;20048;-80
2021/05/30 02:21:23;;;;;;;17.98;10.98;;;10.70;99.90;;;;;;5035883;28;20052;-80
2021/05/30 02:23:50;;;;;;;20.23;10.88;;;10.70;99.90;;;;;;5052249;28;20043;-80
2021/05/30 02:26:16;;;;;;;18.52;11.07;;;10.70;99.90;;;;;;5033503;28;20123;-80
2021/05/30 02:28:43;;;;;;;17.48;10.30;;;10.60;99.90;;;;;;5038206;28;20052;-80
2021/05/30 02:31:10;;;;;;;18.92;10.15;;;10.60;99.90;;;;;;5038329;28;20084;-80
2021/05/30 02:33:37;;;;;;;18.95;9.88;;;10.60;99.90;;;;;;5039423;28;20049;-80
2021/05/30 02:36:04;;;;;;;18.13;10.07;;;10.50;99.90;;;;;;5038035;28;20136;-81
2021/05/30 02:38:31;;;;;;;18.05;9.85;;;10.50;99.90;;;;;;5040953;28;20105;-80
2021/05/30 02:40:58;;;;;;;17.25;9.95;;;10.50;99.90;;;;;;5043622;28;20400;-81
2021/05/30 02:43:24;;;;;;;16.00;10.40;;;10.50;99.90;;;;;;5040434;28;20049;-80
2021/05/30 02:45:51;;;;;;;21.80;10.93;;;10.60;99.90;;;;;;5042601;28;20151;-80
2021/05/30 02:48:18;;;;;;;22.92;10.50;;;10.60;99.90;;;;;;5037008;28;20079;-81
2021/05/30 02:50:57;;;;;;;25.05;11.13;;;10.60;99.90;;;;;;5037736;28;20482;-81
2021/05/30 02:53:26;;;;;;;19.77;9.95;;;10.50;99.90;;;;;;5040475;28;20049;-81
2021/05/30 02:55:53;;;;;;;17.27;9.93;;;10.60;99.90;;;;;;5037871;28;20068;-80
2021/05/30 02:58:20;;;;;;;17.70;10.45;;;10.50;99.90;;;;;;5043873;28;20057;-80
2021/05/30 03:00:47;;;;;;;24.77;11.90;;;10.50;99.90;;;;;;5047992;28;20489;-80
2021/05/30 03:03:14;;;;;;;15.75;10.50;;;10.50;99.90;;;;;;5076585;28;20048;-81
2021/05/30 03:05:41;;;;;;;18.60;10.75;;;10.40;99.90;;;;;;5043053;28;20110;-81
2021/05/30 03:08:07;;;;;;;20.23;10.60;;;10.40;99.90;;;;;;5040619;28;20045;-80
2021/05/30 03:10:34;;;;;;;24.25;12.20;;;10.40;99.90;;;;;;5036397;28;21495;-81
2021/05/30 03:13:03;;;;;;;18.38;11.13;;;10.40;99.90;;;;;;5044864;28;20632;-81
2021/05/30 03:15:30;;;;;;;19.17;10.25;;;10.40;99.90;;;;;;5042392;28;20442;-81
2021/05/30 03:17:57;;;;;;;22.02;11.50;;;10.40;99.90;;;;;;5038474;28;20137;-80
2021/05/30 03:20:23;;;;;;;17.98;11.00;;;10.30;99.90;;;;;;5073949;28;20049;-80
2021/05/30 03:22:50;;;;;;;19.63;11.38;;;10.40;99.90;;;;;;5041205;28;20456;-80
2021/05/30 03:25:17;;;;;;;22.05;11.57;;;10.40;99.90;;;;;;5042677;28;20131;-80
2021/05/30 03:27:44;;;;;;;16.92;11.10;;;10.30;99.90;;;;;;5042057;28;20112;-80
2021/05/30 03:30:12;;;;;;;18.83;11.50;;;10.30;99.90;;;;;;5077006;28;20059;-80
2021/05/30 03:32:39;;;;;;;17.30;11.93;;;10.20;99.90;;;;;;5038518;28;20059;-80
2021/05/30 03:35:06;;;;;;;22.40;12.00;;;10.20;99.90;;;;;;5047008;28;20053;-80
2021/05/30 03:37:33;;;;;;;18.05;10.93;;;10.10;99.90;;;;;;5042178;28;20055;-79
2021/05/30 03:40:04;;;;;;;25.25;12.65;;;10.00;99.90;;;;;;5042981;28;20098;-79
2021/05/30 03:42:35;;;;;;;22.63;12.50;;;10.00;99.90;;;;;;5040332;28;20049;-79
2021/05/30 03:45:04;;;;;;;27.52;12.52;;;9.90;99.90;;;;;;5048432;28;20045;-79
2021/05/30 03:47:31;;;;;;;25.80;13.55;;;9.90;99.90;;;;;;5043312;28;20055;-80
2021/05/30 03:49:58;;;;;;;23.38;12.38;;;9.80;99.90;;;;;;5042463;28;20037;-80
2021/05/30 03:52:24;;;;;;;29.58;13.10;;;9.80;99.90;;;;;;5044052;28;20064;-80
2021/05/30 03:54:51;;;;;;;27.33;13.05;;;9.80;99.90;;;;;;5039346;28;20087;-79
2021/05/30 03:57:18;;;;;;;24.60;12.93;;;9.70;99.90;;;;;;5043401;28;20454;-80
2021/05/30 03:59:45;;;;;;;24.30;12.55;;;9.70;99.90;;;;;;5072809;28;20060;-80
2021/05/30 04:02:12;;;;;;;22.02;12.82;;;9.70;99.90;;;;;;5045540;28;20055;-80
2021/05/30 04:04:38;;;;;;;23.85;12.85;;;9.70;99.90;;;;;;5046671;28;20045;-79
2021/05/30 04:07:05;;;;;;;26.23;13.05;;;9.70;99.90;;;;;;5039702;28;20050;-80
2021/05/30 04:09:32;;;;;;;26.00;12.60;;;9.70;99.90;;;;;;5040587;28;20132;-80
2021/05/30 04:11:59;;;;;;;21.10;12.15;;;9.60;99.90;;;;;;5047970;28;20060;-80
2021/05/30 04:14:26;;;;;;;25.05;12.43;;;9.70;99.90;;;;;;5043827;28;20033;-79
2021/05/30 04:16:53;;;;;;;23.67;13.40;;;9.70;99.90;;;;;;5073534;28;22019;-79
2021/05/30 04:19:20;;;;;;;30.02;14.68;;;9.70;99.90;;;;;;5042023;28;20065;-79
2021/05/30 04:21:47;;;;;;;30.38;13.25;;;9.70;99.90;;;;;;5038721;28;20049;-80
2021/05/30 04:24:13;;;;;;;26.85;13.63;;;9.70;99.90;;;;;;5072788;28;20125;-80
2021/05/30 04:26:40;;;;;;;26.95;13.55;;;9.70;99.90;;;;;;5043174;28;20051;-80
2021/05/30 04:29:07;;;;;;;26.48;12.82;;;9.80;99.90;;;;;;5044723;28;20481;-79
2021/05/30 04:31:34;;;;;;;28.65;13.80;;;9.80;99.90;;;;;;5043781;28;20485;-80
2021/05/30 04:34:01;;;;;;;27.10;13.38;;;9.80;99.90;;;;;;5044642;28;20072;-80
2021/05/30 04:36:28;;;;;;;30.65;13.90;;;9.90;99.90;;;;;;5037596;28;20503;-80
2021/05/30 04:38:55;;;;;;;42.40;14.70;;;9.90;99.90;;;;;;5037971;28;20045;-80
2021/05/30 04:41:22;;;;;;;20.42;12.02;;;9.90;99.90;;;;;;5032285;28;20059;-79
2021/05/30 04:43:49;;;;;;;28.67;12.90;;;9.90;99.90;;;;;;5058455;28;20055;-79
2021/05/30 04:46:17;;;;;;;30.92;13.80;;;10.00;99.90;;;;;;5044592;28;20062;-79
2021/05/30 04:48:45;;;;;;;27.38;13.85;;;10.10;99.90;;;;;;5045520;28;20491;-79
2021/05/30 04:51:13;;;;;;;26.05;13.38;;;10.10;99.90;;;;;;5042365;28;20128;-79
2021/05/30 04:53:42;;;;;;;25.38;12.70;;;10.20;99.90;;;;;;5046959;28;20133;-78
2021/05/30 04:56:10;;;;;;;26.00;13.07;;;10.30;99.90;;;;;;5073341;28;20052;-79
2021/05/30 04:58:38;;;;;;;22.38;12.77;;;10.30;99.90;;;;;;5042098;28;20492;-79
2021/05/30 05:01:07;;;;;;;26.58;13.27;;;10.30;99.90;;;;;;5058820;28;20049;-78
2021/05/30 05:03:34;;;;;;;26.33;13.07;;;10.40;99.90;;;;;;5047296;28;20028;-79
2021/05/30 05:06:01;;;;;;;24.08;12.70;;;10.50;99.90;;;;;;5043288;28;20072;-79
2021/05/30 05:08:28;;;;;;;22.77;12.00;;;10.60;99.90;;;;;;5043059;28;20136;-79
2021/05/30 05:10:55;;;;;;;21.92;12.70;;;10.60;99.90;;;;;;5041593;28;20057;-79
2021/05/30 05:13:21;;;;;;;24.67;12.27;;;10.70;99.90;;;;;;5033252;28;20055;-79
2021/05/30 05:15:50;;;;;;;22.02;13.32;;;10.70;99.90;;;;;;5050057;28;20100;-79
2021/05/30 05:18:25;;;;;;;25.25;13.57;;;10.80;99.90;;;;;;5037143;28;20132;-79
2021/05/30 05:20:52;;;;;;;25.52;12.07;;;10.90;99.90;;;;;;5047977;28;20055;-78
2021/05/30 05:23:22;;;;;;;24.13;12.43;;;11.00;99.90;;;;;;5045194;28;20106;-78
2021/05/30 05:25:50;;;;;;;23.55;13.13;;;11.00;99.90;;;;;;5042614;28;20151;-78
2021/05/30 05:28:17;;;;;;;22.58;13.13;;;11.10;99.90;;;;;;5041228;28;20505;-79
2021/05/30 05:30:44;;;;;;;21.98;12.82;;;11.10;99.90;;;;;;5040920;28;20045;-79
2021/05/30 05:33:10;;;;;;;25.35;13.00;;;11.20;99.90;;;;;;5057585;28;20057;-78
2021/05/30 05:35:37;;;;;;;23.83;12.25;;;11.30;99.90;;;;;;5042920;28;20068;-79
2021/05/30 05:38:04;;;;;;;26.48;12.30;;;11.30;99.90;;;;;;5038685;28;20478;-78
2021/05/30 05:40:31;;;;;;;23.08;11.40;;;11.40;99.90;;;;;;5045011;28;20567;-79
2021/05/30 05:42:58;;;;;;;23.20;11.18;;;11.40;99.90;;;;;;5040886;28;20128;-79
2021/05/30 05:45:26;;;;;;;22.80;10.50;;;11.50;99.90;;;;;;5044368;28;20057;-78
2021/05/30 05:47:53;;;;;;;19.75;9.68;;;11.60;99.90;;;;;;5046522;28;20069;-79
2021/05/30 05:50:22;;;;;;;18.20;9.05;;;11.60;99.90;;;;;;5044601;28;20060;-79
2021/05/30 05:52:49;;;;;;;19.35;9.60;;;11.70;99.90;;;;;;5044744;28;20080;-78
2021/05/30 05:55:18;;;;;;;18.35;9.40;;;11.70;99.90;;;;;;5043038;28;20051;-80
2021/05/30 05:57:48;;;;;;;20.10;9.45;;;11.80;99.90;;;;;;5047103;28;20060;-79
2021/05/30 06:00:18;;;;;;;19.25;9.13;;;11.80;99.90;;;;;;5045737;28;20171;-79
2021/05/30 06:02:46;;;;;;;22.92;9.32;;;11.90;99.90;;;;;;5046063;28;20095;-79
2021/05/30 06:05:16;;;;;;;22.02;9.80;;;12.00;99.90;;;;;;5040065;28;20148;-79
2021/05/30 06:07:44;;;;;;;22.00;9.20;;;12.20;99.90;;;;;;5046094;28;20045;-79
2021/05/30 06:10:14;;;;;;;17.60;9.05;;;12.30;99.90;;;;;;5077077;28;20041;-79
2021/05/30 06:12:42;;;;;;;18.55;8.93;;;12.40;99.90;;;;;;5042273;28;20052;-79
2021/05/30 06:15:09;;;;;;;21.73;10.35;;;12.50;99.90;;;;;;5045957;28;20459;-79
2021/05/30 06:17:36;;;;;;;17.85;9.55;;;12.50;99.90;;;;;;5047667;28;20109;-79
2021/05/30 06:20:04;;;;;;;16.38;8.20;;;12.60;99.90;;;;;;5042521;28;20056;-79
2021/05/30 06:22:32;;;;;;;16.90;8.32;;;12.70;99.90;;;;;;5041093;28;20049;-78
2021/05/30 06:24:58;;;;;;;20.10;9.13;;;12.70;99.90;;;;;;5042858;28;20118;-79
2021/05/30 06:27:26;;;;;;;16.67;8.00;;;12.80;99.90;;;;;;5037506;28;20050;-79
2021/05/30 06:29:53;;;;;;;14.93;9.23;;;12.80;99.90;;;;;;5045043;28;20481;-79
2021/05/30 06:32:21;;;;;;;16.45;8.90;;;12.90;99.90;;;;;;5046070;28;20052;-78
2021/05/30 06:34:50;;;;;;;16.70;8.13;;;12.90;99.90;;;;;;5051667;28;20045;-79
2021/05/30 06:37:17;;;;;;;21.52;9.38;;;13.00;99.90;;;;;;5043158;28;20041;-79
2021/05/30 06:39:44;;;;;;;19.40;9.20;;;13.10;99.90;;;;;;5052282;28;20092;-78
2021/05/30 06:42:10;;;;;;;16.88;8.43;;;13.20;99.90;;;;;;5047465;28;20036;-78
2021/05/30 06:44:37;;;;;;;17.70;8.02;;;13.30;99.90;;;;;;5049760;28;20486;-81
2021/05/30 06:47:04;;;;;;;17.63;8.90;;;13.40;99.90;;;;;;5044874;28;20077;-78
2021/05/30 06:49:31;;;;;;;15.38;8.63;;;13.50;99.90;;;;;;5079676;28;20049;-79
2021/05/30 06:51:58;;;;;;;13.68;8.25;;;13.60;99.90;;;;;;5041599;28;20116;-79
2021/05/30 06:54:24;;;;;;;13.20;8.68;;;13.70;99.90;;;;;;5056194;28;20049;-78
2021/05/30 06:56:51;;;;;;;18.00;9.18;;;13.80;99.90;;;;;;5044677;28;20052;-79
2021/05/30 06:59:19;;;;;;;17.75;8.00;;;13.90;99.90;;;;;;5041615;28;20046;-79
2021/05/30 07:01:46;;;;;;;16.20;8.27;;;14.00;99.90;;;;;;5049922;28;20052;-79
2021/05/30 07:04:12;;;;;;;18.40;7.93;;;14.00;99.90;;;;;;5046213;28;20060;-79
2021/05/30 07:06:39;;;;;;;12.35;7.72;;;14.10;99.90;;;;;;5049864;28;20048;-79
2021/05/30 07:09:06;;;;;;;24.00;9.13;;;14.20;99.90;;;;;;5041186;28;20459;-79
2021/05/30 07:11:34;;;;;;;13.88;7.93;;;14.30;99.90;;;;;;5047535;28;20072;-79
2021/05/30 07:14:02;;;;;;;16.55;8.63;;;14.40;99.90;;;;;;5043383;28;20042;-79
2021/05/30 07:16:29;;;;;;;16.27;8.60;;;14.50;99.90;;;;;;5030512;28;20053;-79
2021/05/30 07:18:55;;;;;;;16.02;7.85;;;14.60;99.90;;;;;;5045702;28;20049;-78
2021/05/30 07:21:22;;;;;;;13.50;8.40;;;14.60;99.90;;;;;;5047626;28;20128;-78
2021/05/30 07:23:49;;;;;;;14.18;7.88;;;14.60;99.90;;;;;;5067766;28;20052;-79
2021/05/30 07:26:16;;;;;;;12.73;7.32;;;14.70;99.90;;;;;;5047561;28;20063;-78
2021/05/30 07:28:46;;;;;;;15.10;8.65;;;14.80;99.90;;;;;;5050573;28;20053;-78
2021/05/30 07:31:14;;;;;;;18.67;8.07;;;14.90;99.90;;;;;;5045931;28;20056;-79
2021/05/30 07:33:41;;;;;;;13.05;8.57;;;14.90;99.90;;;;;;5042103;28;20041;-79
2021/05/30 07:36:08;;;;;;;19.05;9.38;;;15.00;99.90;;;;;;5043731;28;20116;-78
2021/05/30 07:38:37;;;;;;;17.35;8.82;;;15.10;99.90;;;;;;5044829;28;20128;-79
2021/05/30 07:41:04;;;;;;;17.67;8.73;;;15.20;99.90;;;;;;5047421;28;20112;-80
2021/05/30 07:43:31;;;;;;;17.48;9.05;;;15.30;99.90;;;;;;5040159;28;20468;-79
2021/05/30 07:45:59;;;;;;;18.10;10.00;;;15.30;99.90;;;;;;5046501;28;21245;-79
2021/05/30 07:48:27;;;;;;;14.77;9.13;;;15.40;99.90;;;;;;5047052;28;20055;-79
2021/05/30 07:50:54;;;;;;;17.13;9.55;;;15.50;99.90;;;;;;5046849;28;20075;-78
2021/05/30 07:53:21;;;;;;;18.83;8.90;;;15.50;99.90;;;;;;5044606;28;20047;-79
2021/05/30 07:55:48;;;;;;;16.20;9.02;;;15.60;99.90;;;;;;5045088;28;20407;-79
2021/05/30 07:58:19;;;;;;;14.13;8.15;;;15.80;99.90;;;;;;5034349;28;20075;-79
2021/05/30 08:00:46;;;;;;;12.48;8.73;;;15.90;99.90;;;;;;5046258;28;20076;-79
2021/05/30 08:03:13;;;;;;;18.38;8.95;;;16.00;99.90;;;;;;5043959;28;20052;-79
2021/05/30 08:05:40;;;;;;;16.00;9.32;;;16.10;99.90;;;;;;5045335;28;20049;-79
2021/05/30 08:08:07;;;;;;;16.55;9.43;;;16.20;99.90;;;;;;5044053;28;20063;-79
2021/05/30 08:10:33;;;;;;;16.20;9.00;;;16.20;99.90;;;;;;5044409;28;20104;-79
2021/05/30 08:13:00;;;;;;;17.40;9.40;;;16.30;99.90;;;;;;5051735;28;20076;-79
2021/05/30 08:15:27;;;;;;;21.42;10.90;;;16.40;99.90;;;;;;5047371;28;20056;-79
2021/05/30 08:17:55;;;;;;;17.23;9.82;;;16.40;99.90;;;;;;5043541;28;20068;-78
2021/05/30 08:20:25;;;;;;;17.38;9.82;;;16.50;99.90;;;;;;5073983;28;20508;-78
2021/05/30 08:22:52;;;;;;;18.27;9.70;;;16.60;99.90;;;;;;5045021;28;20064;-79
2021/05/30 08:25:20;;;;;;;14.50;9.68;;;16.60;99.90;;;;;;5044432;28;24970;-80
2021/05/30 08:27:50;;;;;;;19.55;10.90;;;16.70;99.90;;;;;;5047755;28;20063;-79
2021/05/30 08:30:19;;;;;;;13.77;9.50;;;16.80;99.90;;;;;;5045955;28;20132;-79
2021/05/30 08:32:47;;;;;;;15.90;10.18;;;16.90;99.90;;;;;;5061121;28;20091;-79
2021/05/30 08:35:15;;;;;;;14.77;9.98;;;16.90;99.90;;;;;;5042711;28;20047;-79
2021/05/30 08:37:44;;;;;;;14.70;9.23;;;16.90;99.90;;;;;;5044884;28;20053;-78
2021/05/30 08:40:17;;;;;;;13.77;8.85;;;17.00;99.90;;;;;;5041895;28;20059;-79
2021/05/30 08:42:46;;;;;;;15.90;9.45;;;17.30;99.90;;;;;;5034455;28;20067;-78
2021/05/30 08:45:15;;;;;;;16.73;10.30;;;17.50;99.90;;;;;;5044216;28;20489;-79
2021/05/30 08:47:42;;;;;;;21.45;10.52;;;17.50;99.90;;;;;;5043711;28;20558;-79
2021/05/30 08:50:09;;;;;;;18.70;9.88;;;17.50;99.90;;;;;;5030766;28;20084;-79
2021/05/30 08:52:39;;;;;;;21.35;11.15;;;17.70;99.90;;;;;;5067922;28;20053;-79
2021/05/30 08:55:07;;;;;;;16.88;9.02;;;17.80;99.90;;;;;;5068175;28;20061;-80
2021/05/30 08:57:34;;;;;;;14.00;9.57;;;17.80;99.90;;;;;;5043476;28;20117;-80
2021/05/30 09:00:04;;;;;;;15.00;9.68;;;17.90;99.90;;;;;;5042793;28;20136;-80
2021/05/30 09:02:31;;;;;;;18.67;11.57;;;17.90;99.90;;;;;;5045760;28;20057;-79
2021/05/30 09:05:01;;;;;;;14.85;10.60;;;18.00;99.90;;;;;;5047903;28;20065;-80
2021/05/30 09:07:47;;;;;;;13.80;9.23;;;18.10;99.90;;;;;;5045170;28;20061;-79
2021/05/30 09:10:26;;;;;;;14.73;10.13;;;18.00;99.90;;;;;;5041961;28;20057;-79
2021/05/30 09:13:15;;;;;;;20.55;10.52;;;18.10;99.90;;;;;;5043175;28;20048;-80
2021/05/30 09:16:09;;;;;;;17.67;10.43;;;18.30;99.90;;;;;;5042776;28;20057;-79
2021/05/30 09:18:50;;;;;;;13.55;9.65;;;18.40;99.90;;;;;;5036267;28;20048;-80
2021/05/30 09:21:19;;;;;;;15.63;9.85;;;18.60;99.90;;;;;;5061133;28;20047;-80
2021/05/30 09:23:47;;;;;;;13.23;9.52;;;18.80;99.90;;;;;;5045719;28;20874;-80
2021/05/30 09:26:22;;;;;;;15.55;9.77;;;18.90;99.90;;;;;;5051514;28;20640;-78
2021/05/30 09:29:09;;;;;;;13.25;9.40;;;19.00;99.90;;;;;;5038312;28;20752;-78
2021/05/30 09:31:59;;;;;;;17.50;11.07;;;19.20;99.90;;;;;;5039130;28;20048;-79
2021/05/30 09:34:31;;;;;;;18.35;10.65;;;19.30;99.80;;;;;;5078000;28;20052;-78
2021/05/30 09:36:58;;;;;;;14.10;9.98;;;19.30;99.00;;;;;;5040325;28;20041;-79
2021/05/30 09:39:34;;;;;;;18.35;11.00;;;19.30;98.30;;;;;;5028516;28;20085;-78
2021/05/30 09:42:32;;;;;;;13.35;9.57;;;19.40;98.70;;;;;;5070737;28;20068;-78
2021/05/30 09:45:01;;;;;;;17.20;10.32;;;19.40;99.90;;;;;;5073218;28;20128;-78
2021/05/30 09:47:36;;;;;;;13.35;9.65;;;19.60;99.20;;;;;;5045038;28;20072;-79
2021/05/30 09:50:04;;;;;;;12.75;9.45;;;19.70;98.10;;;;;;5044380;28;20113;-78
2021/05/30 09:52:37;;;;;;;13.32;9.70;;;19.70;98.80;;;;;;5041982;28;20056;-78
2021/05/30 09:55:26;;;;;;;15.80;9.68;;;19.90;95.80;;;;;;5058132;28;20169;-79
2021/05/30 09:58:16;;;;;;;14.18;9.35;;;19.90;97.00;;;;;;5044494;28;20052;-79
2021/05/30 10:00:56;;;;;;;13.93;9.07;;;20.10;96.90;;;;;;5042116;28;20053;-78
2021/05/30 10:03:24;;;;;;;12.52;9.60;;;20.30;96.60;;;;;;5055446;28;20040;-79
2021/05/30 10:05:51;;;;;;;16.98;9.15;;;20.50;94.40;;;;;;5062015;28;20053;-79
2021/05/30 10:08:20;;;;;;;14.60;9.35;;;20.50;95.00;;;;;;5046439;28;20045;-79
2021/05/30 10:10:47;;;;;;;12.30;9.23;;;20.60;95.00;;;;;;5041206;28;20052;-78
2021/05/30 10:13:15;;;;;;;13.93;9.48;;;20.70;94.00;;;;;;5077361;28;20106;-79
2021/05/30 10:15:42;;;;;;;13.48;9.55;;;20.70;94.10;;;;;;5047532;28;20079;-79
2021/05/30 10:18:19;;;;;;;15.00;8.90;;;20.70;91.90;;;;;;5052355;28;20057;-79
2021/05/30 10:20:50;;;;;;;12.20;9.07;;;20.70;93.10;;;;;;5048715;28;20065;-78
2021/05/30 10:23:18;;;;;;;16.00;8.95;;;20.80;94.10;;;;;;5043188;28;20053;-81
2021/05/30 10:25:46;;;;;;;14.18;8.45;;;21.00;93.90;;;;;;5043609;28;20067;-80
2021/05/30 10:28:50;;;;;;;12.40;8.75;;;21.20;92.90;;;;;;5045434;28;20048;-79
2021/05/30 10:31:22;;;;;;;13.27;8.57;;;21.30;93.00;;;;;;5059328;28;20152;-78
2021/05/30 10:34:11;;;;;;;10.55;7.88;;;21.30;91.40;;;;;;5079462;28;20079;-78
2021/05/30 10:37:05;;;;;;;11.73;7.45;;;21.50;93.90;;;;;;5076821;28;20045;-78
2021/05/30 10:39:33;;;;;;;14.65;8.30;;;21.70;91.40;;;;;;5075401;28;20053;-78
2021/05/30 10:42:25;;;;;;;11.77;6.78;;;21.80;90.90;;;;;;5076334;28;20045;-79
2021/05/30 10:44:57;;;;;;;11.23;7.03;;;22.00;90.70;;;;;;5063444;28;20063;-79
2021/05/30 10:47:42;;;;;;;11.38;6.88;;;22.20;90.50;;;;;;5042227;28;20056;-80
2021/05/30 10:50:16;;;;;;;12.85;7.60;;;22.20;90.20;;;;;;5075531;28;20114;-79
2021/05/30 10:52:53;;;;;;;10.57;7.60;;;22.40;86.60;;;;;;5060061;28;20053;-79
2021/05/30 10:55:31;;;;;;;13.18;7.28;;;22.40;83.80;;;;;;5051415;28;20137;-78
2021/05/30 10:58:15;;;;;;;11.13;7.03;;;22.20;84.30;;;;;;5020236;28;20057;-80
2021/05/30 11:00:46;;;;;;;7.75;5.97;;;22.30;87.20;;;;;;5055744;28;21006;-81
2021/05/30 11:03:20;;;;;;;11.65;7.30;;;22.70;82.70;;;;;;5033253;28;20055;-81
2021/05/30 11:05:59;;;;;;;10.50;6.30;;;22.80;83.90;;;;;;5048138;28;20110;-79
2021/05/30 11:08:34;;;;;;;15.00;7.30;;;23.00;84.70;;;;;;5039433;28;20044;-83
2021/05/30 11:11:20;;;;;;;12.73;7.82;;;23.30;81.10;;;;;;5031740;28;20052;-80
2021/05/30 11:13:51;;;;;;;;;;;23.40;80.00;;;;;;5067475;28;20573;-83
2021/05/30 11:16:21;;;;;;;13.00;7.35;;;23.40;75.80;;;;;;5078376;28;19991;-79
2021/05/30 11:19:03;;;;;;;11.57;7.22;;;23.40;74.30;;;;;;5059165;28;20060;-79
2021/05/30 11:21:46;;;;;;;9.52;6.43;;;23.40;78.20;;;;;;5054855;28;20132;-79
2021/05/30 11:24:18;;;;;;;8.00;5.13;;;23.60;80.20;;;;;;5050657;28;20051;-80
2021/05/30 11:27:03;;;;;;;8.95;6.53;;;23.90;81.20;;;;;;5048085;28;21116;-79
2021/05/30 11:29:33;;;;;;;10.02;7.45;;;24.30;79.30;;;;;;5055629;28;20044;-79
2021/05/30 11:32:02;;;;;;;7.60;6.15;;;24.50;75.70;;;;;;5048974;28;20068;-80
2021/05/30 11:34:35;;;;;;;10.88;6.75;;;24.60;74.30;;;;;;5038046;28;20060;-79
2021/05/30 11:37:11;;;;;;;9.02;6.82;;;24.60;74.30;;;;;;5044500;28;20374;-78
2021/05/30 11:39:39;;;;;;;10.32;6.30;;;24.70;70.90;;;;;;5036875;28;20071;-79
2021/05/30 11:42:06;;;;;;;10.93;5.55;;;24.80;77.00;;;;;;5060551;28;20526;-79
2021/05/30 11:44:34;;;;;;;10.15;6.10;;;25.20;69.20;;;;;;5045765;28;20051;-79
2021/05/30 11:47:22;;;;;;;6.85;5.30;;;25.60;65.90;;;;;;5041240;28;20064;-80
2021/05/30 11:49:49;;;;;;;6.05;5.30;;;25.90;66.60;;;;;;5048543;28;20494;-79
2021/05/30 11:52:18;;;;;;;7.63;4.88;;;26.30;69.30;;;;;;5043785;28;20407;-79
2021/05/30 11:54:49;;;;;;;8.32;5.25;;;26.50;66.60;;;;;;5057438;28;20040;-78
2021/05/30 11:57:18;;;;;;;8.50;5.10;;;27.00;64.70;;;;;;5046967;28;20545;-80
2021/05/30 12:00:05;;;;;;;8.52;5.85;;;27.40;63.80;;;;;;5067087;28;20080;-80
2021/05/30 12:02:40;;;;;;;9.40;6.10;;;27.80;63.30;;;;;;5043284;28;20045;-79
2021/05/30 12:05:09;;;;;;;5.78;5.20;;;28.10;60.30;;;;;;5048190;28;20045;-79
2021/05/30 12:07:38;;;;;;;6.43;5.43;;;28.50;61.30;;;;;;5064425;28;20077;-80
2021/05/30 12:10:14;;;;;;;6.60;4.90;;;29.20;60.10;;;;;;5046072;28;20052;-81
2021/05/30 12:12:45;;;;;;;6.57;4.13;;;29.80;60.40;;;;;;5041906;28;20140;-80
2021/05/30 12:15:20;;;;;;;9.25;4.70;;;30.70;54.50;;;;;;5044497;28;20064;-81
2021/05/30 12:17:56;;;;;;;5.18;4.30;;;31.10;50.20;;;;;;5045164;28;20061;-81
2021/05/30 12:20:29;;;;;;;6.32;4.45;;;31.50;51.40;;;;;;5056537;28;20048;-81
2021/05/30 12:23:11;;;;;;;8.27;4.55;;;32.10;52.00;;;;;;5049428;28;20046;-81
2021/05/30 12:26:09;;;;;;;8.52;4.40;;;32.60;48.00;;;;;;5050467;28;20052;-81
2021/05/30 12:28:39;;;;;;;5.72;4.05;;;32.90;48.80;;;;;;5055126;28;20044;-81
2021/05/30 12:31:11;;;;;;;7.57;4.50;;;33.10;48.10;;;;;;5080601;28;20477;-81
2021/05/30 12:33:55;;;;;;;6.43;5.03;;;33.30;47.40;;;;;;5065324;28;20049;-81
2021/05/30 12:36:38;;;;;;;5.13;4.47;;;33.60;43.10;;;;;;5047996;28;20280;-81
2021/05/30 12:39:25;;;;;;;6.65;5.30;;;33.40;44.30;;;;;;5051683;28;20077;-80
2021/05/30 12:42:11;;;;;;;4.28;3.80;;;33.00;45.20;;;;;;5061023;28;20044;-80
2021/05/30 12:44:46;;;;;;;5.90;4.40;;;32.80;48.40;;;;;;5064667;28;20136;-80
2021/05/30 12:47:23;;;;;;;7.00;5.18;;;33.00;45.30;;;;;;5033641;28;20053;-80
2021/05/30 12:50:04;;;;;;;10.60;4.57;;;33.20;43.40;;;;;;5054789;28;20519;-80
2021/05/30 12:52:45;;;;;;;4.53;4.13;;;33.40;44.00;;;;;;5066282;28;20460;-80